createdAt,value
2019-01-24T00:00:41.312Z,6.53
2019-01-24T00:03:11.071Z,4.95
2019-01-24T00:05:43.254Z,13.80
2019-01-24T00:08:15.385Z,10.98
2019-01-24T00:10:46.463Z,9.08
2019-01-24T00:13:17.440Z,9.50
2019-01-24T00:15:48.390Z,5.37
2019-01-24T00:18:20.831Z,7.28
2019-01-24T00:20:51.902Z,5.35
2019-01-24T00:23:22.886Z,7.70
2019-01-24T00:25:53.851Z,6.75
2019-01-24T00:28:25.743Z,6.70
2019-01-24T00:30:55.633Z,3.12
2019-01-24T00:33:27.903Z,8.35
2019-01-24T00:35:58.905Z,3.60
2019-01-24T00:38:28.945Z,9.38
2019-01-24T00:41:01.561Z,18.02
2019-01-24T00:43:32.582Z,12.68
2019-01-24T00:46:03.551Z,14.73
2019-01-24T00:48:34.543Z,15.90
2019-01-24T00:51:05.943Z,17.87
2019-01-24T00:53:42.169Z,12.30
2019-01-24T00:56:12.866Z,17.27
2019-01-24T00:58:45.032Z,22.05
2019-01-24T01:01:16.504Z,19.98
2019-01-24T01:03:52.786Z,21.77
2019-01-24T01:06:26.206Z,17.32
2019-01-24T01:08:57.223Z,17.67
2019-01-24T01:11:30.341Z,21.12
2019-01-24T01:14:05.472Z,18.80
2019-01-24T01:16:35.313Z,15.50
2019-01-24T01:19:06.342Z,16.32
2019-01-24T01:21:37.311Z,17.15
2019-01-24T01:24:08.307Z,13.65
2019-01-24T01:26:39.231Z,15.43
2019-01-24T01:29:10.221Z,11.55
2019-01-24T01:31:40.783Z,9.78
2019-01-24T01:34:11.767Z,16.12
2019-01-24T01:36:41.571Z,16.70
2019-01-24T01:39:10.902Z,17.12
2019-01-24T01:41:42.527Z,18.65
2019-01-24T01:44:12.423Z,17.82
2019-01-24T01:46:42.423Z,19.23
2019-01-24T01:49:12.423Z,16.17
2019-01-24T01:51:43.347Z,16.77
2019-01-24T01:54:13.230Z,19.20
2019-01-24T01:56:44.303Z,18.30
2019-01-24T01:59:14.182Z,17.90
2019-01-24T02:01:48.223Z,16.10
2019-01-24T02:04:19.203Z,18.02
2019-01-24T02:06:50.182Z,11.28
2019-01-24T02:09:22.786Z,17.92
2019-01-24T02:11:52.061Z,17.15
2019-01-24T02:14:23.071Z,15.10
2019-01-24T02:16:54.074Z,13.20
2019-01-24T02:19:26.582Z,12.23
2019-01-24T02:21:57.561Z,16.93
2019-01-24T02:24:28.503Z,9.88
2019-01-24T02:26:59.550Z,9.53
2019-01-24T02:29:30.543Z,17.42
2019-01-24T02:32:01.185Z,12.07
2019-01-24T02:34:31.103Z,18.75
2019-01-24T02:37:02.184Z,20.05
2019-01-24T02:39:34.420Z,10.98
2019-01-24T02:42:07.473Z,12.30
2019-01-24T02:44:35.871Z,14.10
2019-01-24T02:47:09.102Z,10.60
2019-01-24T02:49:41.467Z,8.18
2019-01-24T02:52:12.991Z,9.35
2019-01-24T02:54:44.701Z,9.85
2019-01-24T02:57:17.215Z,7.20
2019-01-24T02:59:48.222Z,9.40
2019-01-24T03:02:19.224Z,8.60
2019-01-24T03:04:56.953Z,11.95
2019-01-24T03:07:25.984Z,14.55
2019-01-24T03:09:57.063Z,6.45
2019-01-24T03:12:28.124Z,7.87
2019-01-24T03:14:59.064Z,17.50
2019-01-24T03:17:31.362Z,9.63
2019-01-24T03:20:03.317Z,14.33
2019-01-24T03:22:35.874Z,10.35
2019-01-24T03:25:09.022Z,10.05
2019-01-24T03:27:42.783Z,15.63
2019-01-24T03:30:15.311Z,15.25
2019-01-24T03:32:50.916Z,18.85
2019-01-24T03:35:27.913Z,14.63
2019-01-24T03:37:57.913Z,19.00
2019-01-24T03:40:28.985Z,12.20
2019-01-24T03:42:58.982Z,14.60
2019-01-24T03:45:30.022Z,15.55
2019-01-24T03:47:59.942Z,11.15
2019-01-24T03:50:32.543Z,14.47
2019-01-24T03:53:02.475Z,16.23
2019-01-24T03:55:33.503Z,15.55
2019-01-24T03:58:04.546Z,16.02
2019-01-24T04:00:37.031Z,16.80
2019-01-24T04:03:08.103Z,11.12
2019-01-24T04:05:39.179Z,9.68
2019-01-24T04:08:10.623Z,17.75
2019-01-24T04:10:40.024Z,14.58
2019-01-24T04:13:11.103Z,14.07
2019-01-24T04:15:41.023Z,10.45
2019-01-24T04:18:11.988Z,14.07
2019-01-24T04:20:43.012Z,14.35
2019-01-24T04:23:13.944Z,8.60
2019-01-24T04:25:50.312Z,11.20
2019-01-24T04:28:19.776Z,8.58
2019-01-24T04:30:49.588Z,5.35
2019-01-24T04:33:21.195Z,12.40
2019-01-24T04:35:54.547Z,12.37
2019-01-24T04:38:30.183Z,14.70
2019-01-24T04:41:01.147Z,16.42
2019-01-24T04:43:32.624Z,17.45
2019-01-24T04:46:05.431Z,16.02
2019-01-24T04:48:36.514Z,15.85
2019-01-24T04:51:09.102Z,11.90
2019-01-24T04:53:40.102Z,10.45
2019-01-24T04:56:11.071Z,11.30
2019-01-24T04:58:43.361Z,18.30
2019-01-24T05:01:14.343Z,16.07
2019-01-24T05:03:45.869Z,8.13
2019-01-24T05:06:18.969Z,8.95
2019-01-24T05:08:48.342Z,12.82
2019-01-24T05:11:20.073Z,5.10
2019-01-24T05:13:52.459Z,6.95
2019-01-24T05:16:25.784Z,5.30
2019-01-24T05:18:58.299Z,12.98
2019-01-24T05:21:32.956Z,7.92
2019-01-24T05:24:04.218Z,5.03
2019-01-24T05:26:35.269Z,13.83
2019-01-24T05:29:06.221Z,8.55
2019-01-24T05:31:38.026Z,17.60
2019-01-24T05:34:10.561Z,10.15
2019-01-24T05:36:40.488Z,17.48
2019-01-24T05:39:11.474Z,19.00
2019-01-24T05:41:42.473Z,15.45
2019-01-24T05:44:13.542Z,16.32
2019-01-24T05:46:46.042Z,8.13
2019-01-24T05:49:17.036Z,19.25
2019-01-24T05:51:47.950Z,18.27
2019-01-24T05:54:21.201Z,17.85
2019-01-24T05:56:51.062Z,14.60
2019-01-24T05:59:21.982Z,14.63
2019-01-24T06:01:53.502Z,15.98
2019-01-24T06:04:27.072Z,9.65
2019-01-24T06:06:58.670Z,12.45
2019-01-24T06:09:29.783Z,12.10
2019-01-24T06:11:59.795Z,13.00
2019-01-24T06:14:29.782Z,10.95
2019-01-24T06:17:01.631Z,15.53
2019-01-24T06:19:34.223Z,14.05
2019-01-24T06:22:05.710Z,12.45
2019-01-24T06:24:37.181Z,12.63
2019-01-24T06:27:08.181Z,12.30
2019-01-24T06:29:39.183Z,11.38
2019-01-24T06:32:09.185Z,16.35
2019-01-24T06:34:39.063Z,13.08
2019-01-24T06:37:09.022Z,13.28
2019-01-24T06:39:40.902Z,15.68
2019-01-24T06:42:11.950Z,10.35
2019-01-24T06:44:42.946Z,14.23
2019-01-24T06:47:13.990Z,10.48
2019-01-24T06:49:45.275Z,18.90
2019-01-24T06:52:16.222Z,17.30
2019-01-24T06:54:47.190Z,19.57
2019-01-24T06:57:18.314Z,19.07
2019-01-24T06:59:48.262Z,17.50
2019-01-24T07:02:19.262Z,13.88
2019-01-24T07:04:50.509Z,20.65
2019-01-24T07:07:21.502Z,24.45
2019-01-24T07:09:52.589Z,23.90
2019-01-24T07:12:23.589Z,24.37
2019-01-24T07:14:53.630Z,20.45
2019-01-24T07:17:24.703Z,14.90
2019-01-24T07:19:56.159Z,17.07
2019-01-24T07:22:27.342Z,22.05
2019-01-24T07:24:58.270Z,21.93
2019-01-24T07:27:29.302Z,21.82
2019-01-24T07:30:00.302Z,21.87
2019-01-24T07:32:31.903Z,14.68
2019-01-24T07:35:01.824Z,19.82
2019-01-24T07:37:32.783Z,14.20
2019-01-24T07:40:02.621Z,20.17
2019-01-24T07:42:33.707Z,12.07
2019-01-24T07:45:04.883Z,24.65
2019-01-24T07:47:34.823Z,19.23
2019-01-24T07:50:05.943Z,11.68
2019-01-24T07:52:39.462Z,12.68
2019-01-24T07:55:13.179Z,16.25
2019-01-24T07:57:44.821Z,14.47
2019-01-24T08:00:19.702Z,22.93
2019-01-24T08:02:52.512Z,13.25
2019-01-24T08:05:26.702Z,14.65
2019-01-24T08:07:57.834Z,12.73
2019-01-24T08:10:28.950Z,8.15
2019-01-24T08:13:00.744Z,17.42
2019-01-24T08:15:33.410Z,15.40
2019-01-24T08:18:04.990Z,13.35
2019-01-24T08:20:36.107Z,14.35
2019-01-24T08:23:07.247Z,7.92
2019-01-24T08:25:38.662Z,11.38
2019-01-24T08:28:08.622Z,14.38
2019-01-24T08:30:39.630Z,15.00
2019-01-24T08:33:09.707Z,14.43
2019-01-24T08:35:39.661Z,12.35
2019-01-24T08:38:10.670Z,11.88
2019-01-24T08:40:41.785Z,12.85
2019-01-24T08:43:12.864Z,20.97
2019-01-24T08:45:43.910Z,8.70
2019-01-24T08:48:13.829Z,19.87
2019-01-24T08:50:44.910Z,17.17
2019-01-24T08:53:15.942Z,13.93
2019-01-24T08:55:46.959Z,12.47
2019-01-24T08:58:18.142Z,15.75
2019-01-24T09:00:52.639Z,28.57
2019-01-24T09:03:23.422Z,20.68
2019-01-24T09:05:54.592Z,13.78
2019-01-24T09:08:24.553Z,14.98
2019-01-24T09:10:54.551Z,11.08
2019-01-24T09:13:24.543Z,15.03
2019-01-24T09:15:55.623Z,12.73
2019-01-24T09:18:26.672Z,9.80
2019-01-24T09:20:58.510Z,10.80
2019-01-24T09:23:30.384Z,14.78
2019-01-24T09:26:00.510Z,8.88
2019-01-24T09:28:32.423Z,8.48
2019-01-24T09:31:03.504Z,6.60
2019-01-24T09:33:35.196Z,8.28
2019-01-24T09:36:06.343Z,10.23
2019-01-24T09:38:37.390Z,13.50
2019-01-24T09:41:08.470Z,13.53
2019-01-24T09:43:39.519Z,6.78
2019-01-24T09:46:12.062Z,9.33
2019-01-24T09:48:42.041Z,7.08
2019-01-24T09:51:12.070Z,10.32
2019-01-24T09:53:41.982Z,11.33
2019-01-24T09:56:11.862Z,12.35
2019-01-24T09:58:41.182Z,18.35
2019-01-24T10:01:12.223Z,21.77
2019-01-24T10:03:43.262Z,10.48
2019-01-24T10:06:13.863Z,7.47
2019-01-24T10:08:44.871Z,17.45
2019-01-24T10:11:14.911Z,9.35
2019-01-24T10:13:46.036Z,9.18
2019-01-24T10:16:17.103Z,18.85
2019-01-24T10:18:48.152Z,24.67
2019-01-24T10:21:19.226Z,16.32
2019-01-24T10:23:50.312Z,13.93
2019-01-24T10:26:21.302Z,18.67
2019-01-24T10:28:52.342Z,22.17
2019-01-24T10:31:23.383Z,15.78
2019-01-24T10:33:54.505Z,18.25
2019-01-24T10:36:26.022Z,17.10
2019-01-24T10:38:55.951Z,15.88
2019-01-24T10:41:25.831Z,17.30
2019-01-24T10:43:56.911Z,10.80
2019-01-24T10:46:27.902Z,16.45
2019-01-24T10:48:58.950Z,13.43
2019-01-24T10:51:29.983Z,11.12
2019-01-24T10:54:01.037Z,12.47
2019-01-24T10:56:32.161Z,12.20
2019-01-24T10:59:03.273Z,12.18
2019-01-24T11:01:33.189Z,16.23
2019-01-24T11:04:04.267Z,14.63
2019-01-24T11:06:34.144Z,11.05
2019-01-24T11:09:05.269Z,17.32
2019-01-24T11:11:36.430Z,14.80
2019-01-24T11:14:07.426Z,12.73
2019-01-24T11:16:38.463Z,16.55
2019-01-24T11:19:08.471Z,7.67
2019-01-24T11:21:39.190Z,8.53
2019-01-24T11:24:10.272Z,16.30
2019-01-24T11:26:41.397Z,9.70
2019-01-24T11:29:12.513Z,14.83
2019-01-24T11:31:43.503Z,14.03
2019-01-24T11:34:16.059Z,15.75
2019-01-24T11:36:47.030Z,14.83
2019-01-24T11:39:18.031Z,13.70
2019-01-24T11:41:49.038Z,10.08
2019-01-24T11:44:20.113Z,14.03
2019-01-24T11:46:50.036Z,13.00
2019-01-24T11:49:21.184Z,15.20
2019-01-24T11:51:52.756Z,14.05
2019-01-24T11:54:23.822Z,14.10
2019-01-24T11:56:54.781Z,13.35
2019-01-24T11:59:28.302Z,15.20
2019-01-24T12:02:01.462Z,14.18
2019-01-24T12:04:32.542Z,12.45
2019-01-24T12:07:04.181Z,12.82
2019-01-24T12:09:34.390Z,13.75
2019-01-24T12:12:04.421Z,12.58
2019-01-24T12:14:37.633Z,13.30
2019-01-24T12:17:08.673Z,12.75
2019-01-24T12:19:38.631Z,12.10
2019-01-24T12:22:09.712Z,8.65
2019-01-24T12:24:40.755Z,11.85
2019-01-24T12:27:10.873Z,9.73
2019-01-24T12:29:42.551Z,7.15
2019-01-24T12:32:13.543Z,10.35
2019-01-24T12:34:45.343Z,8.55
2019-01-24T12:37:17.183Z,5.33
2019-01-24T12:39:48.192Z,13.08
2019-01-24T12:42:18.064Z,11.05
2019-01-24T12:44:49.102Z,7.55
2019-01-24T12:47:20.142Z,13.88
2019-01-24T12:49:50.107Z,13.25
2019-01-24T12:52:21.663Z,10.85
2019-01-24T12:54:52.738Z,13.00
2019-01-24T12:57:23.792Z,10.70
2019-01-24T12:59:53.702Z,10.15
2019-01-24T13:02:23.670Z,11.18
2019-01-24T13:04:58.062Z,11.78
2019-01-24T13:07:29.023Z,15.72
2019-01-24T13:10:00.543Z,8.08
2019-01-24T13:12:30.550Z,14.98
2019-01-24T13:15:01.664Z,16.52
2019-01-24T13:17:33.151Z,14.33
2019-01-24T13:20:04.191Z,16.02
2019-01-24T13:22:35.223Z,18.73
2019-01-24T13:25:07.281Z,10.18
2019-01-24T13:27:38.471Z,12.37
2019-01-24T13:30:15.395Z,12.82
2019-01-24T13:32:48.583Z,8.45
2019-01-24T13:35:19.582Z,8.53
2019-01-24T13:37:50.673Z,10.98
2019-01-24T13:40:24.021Z,12.95
2019-01-24T13:42:55.036Z,13.20
2019-01-24T13:45:28.240Z,14.87
2019-01-24T13:47:59.516Z,9.60
2019-01-24T13:50:30.622Z,11.28
2019-01-24T13:53:02.351Z,13.32
2019-01-24T13:55:33.387Z,12.43
2019-01-24T13:58:04.391Z,14.00
2019-01-24T14:00:39.193Z,15.65
2019-01-24T14:03:22.111Z,14.23
2019-01-24T14:05:54.732Z,10.32
2019-01-24T14:08:26.130Z,20.30
2019-01-24T14:10:58.025Z,12.30
2019-01-24T14:13:30.623Z,8.68
2019-01-24T14:16:03.148Z,11.90
2019-01-24T14:18:34.634Z,13.83
2019-01-24T14:21:05.628Z,11.10
2019-01-24T14:23:36.662Z,11.03
2019-01-24T14:26:08.431Z,12.73
2019-01-24T14:28:39.943Z,11.50
2019-01-24T14:31:11.074Z,12.93
2019-01-24T14:33:42.109Z,12.07
2019-01-24T14:36:14.987Z,9.45
2019-01-24T14:38:46.262Z,9.95
2019-01-24T14:41:16.148Z,11.85
2019-01-24T14:43:47.317Z,13.15
2019-01-24T14:46:18.303Z,8.33
2019-01-24T14:48:50.169Z,14.40
2019-01-24T14:51:21.189Z,13.53
2019-01-24T14:53:52.270Z,14.73
2019-01-24T14:56:23.263Z,14.28
2019-01-24T14:58:54.395Z,14.05
2019-01-24T15:01:25.463Z,10.78
2019-01-24T15:03:56.504Z,8.33
2019-01-24T15:06:27.623Z,12.07
2019-01-24T15:08:58.589Z,13.28
2019-01-24T15:11:29.671Z,18.42
2019-01-24T15:14:02.272Z,15.15
2019-01-24T15:16:33.311Z,17.42
2019-01-24T15:19:04.428Z,17.32
2019-01-24T15:21:35.928Z,13.32
2019-01-24T15:24:07.073Z,15.15
2019-01-24T15:26:38.038Z,14.13
2019-01-24T15:29:08.783Z,15.68
2019-01-24T15:31:39.783Z,20.65
2019-01-24T15:34:11.600Z,14.65
2019-01-24T15:36:41.543Z,26.70
2019-01-24T15:39:12.582Z,23.20
2019-01-24T15:41:45.143Z,24.37
2019-01-24T15:44:16.912Z,27.60
2019-01-24T15:46:47.911Z,24.20
2019-01-24T15:49:19.102Z,24.37
2019-01-24T15:51:50.145Z,16.40
2019-01-24T15:54:21.227Z,21.07
2019-01-24T15:56:52.232Z,20.90
2019-01-24T15:59:23.287Z,19.20
2019-01-24T16:01:52.792Z,21.25
2019-01-24T16:04:23.754Z,15.53
2019-01-24T16:06:54.904Z,19.37
2019-01-24T16:09:25.902Z,15.10
2019-01-24T16:11:59.143Z,11.30
2019-01-24T16:14:30.267Z,15.03
2019-01-24T16:19:53.505Z,23.75
2019-01-24T16:22:25.664Z,25.25
2019-01-24T16:24:55.553Z,34.05
2019-01-24T16:27:27.471Z,27.17
2019-01-24T16:29:58.569Z,35.35
2019-01-24T16:32:30.264Z,28.42
2019-01-24T16:35:03.863Z,38.17
2019-01-24T16:37:37.597Z,29.48
2019-01-24T16:40:11.982Z,28.67
2019-01-24T16:42:41.395Z,39.95
2019-01-24T16:45:14.748Z,29.10
2019-01-24T16:48:50.673Z,25.27
2019-01-24T16:51:24.233Z,29.77
2019-01-24T16:53:55.582Z,20.68
2019-01-24T16:56:26.871Z,20.08
2019-01-24T16:58:58.196Z,20.60
2019-01-24T17:01:29.544Z,12.28
2019-01-24T17:04:04.665Z,6.28
2019-01-24T17:06:36.383Z,8.28
2019-01-24T17:09:10.195Z,11.73
2019-01-24T17:11:40.417Z,11.53
2019-01-24T17:14:10.181Z,11.97
2019-01-24T17:16:41.703Z,9.30
2019-01-24T17:19:13.104Z,14.60
2019-01-24T17:21:45.423Z,8.73
2019-01-24T17:24:16.743Z,14.78
2019-01-24T17:26:50.703Z,14.25
2019-01-24T17:29:22.109Z,17.40
2019-01-24T17:31:53.951Z,17.40
2019-01-24T17:34:25.868Z,19.12
2019-01-24T17:36:57.063Z,17.05
2019-01-24T17:39:28.913Z,11.88
2019-01-24T17:42:00.186Z,10.82
2019-01-24T17:44:30.463Z,15.68
2019-01-24T17:47:01.673Z,13.85
2019-01-24T17:49:34.262Z,16.23
2019-01-24T17:52:05.553Z,13.55
2019-01-24T17:54:36.743Z,18.82
2019-01-24T17:57:08.705Z,19.32
2019-01-24T17:59:40.143Z,14.78
2019-01-24T18:02:11.350Z,25.20
2019-01-24T18:04:42.584Z,22.20
2019-01-24T18:07:12.834Z,22.65
2019-01-24T18:09:44.623Z,19.57
2019-01-24T18:12:15.999Z,8.80
2019-01-24T18:14:47.386Z,21.12
2019-01-24T18:17:18.471Z,22.22
2019-01-24T18:19:49.662Z,24.85
2019-01-24T18:22:19.588Z,18.55
2019-01-24T18:24:50.630Z,20.57
2019-01-24T18:27:22.348Z,21.75
2019-01-24T18:29:54.465Z,28.70
2019-01-24T18:32:26.345Z,21.95
2019-01-24T18:34:57.663Z,26.20
2019-01-24T18:37:29.586Z,23.98
2019-01-24T18:40:00.795Z,19.30
2019-01-24T18:42:32.069Z,21.65
2019-01-24T18:45:03.542Z,9.33
2019-01-24T18:47:35.422Z,26.75
2019-01-24T18:50:08.102Z,21.17
2019-01-24T18:52:38.430Z,22.65
2019-01-24T18:55:09.745Z,22.50
2019-01-24T18:57:41.102Z,23.02
2019-01-24T19:00:16.462Z,23.42
2019-01-24T19:02:47.783Z,13.60
2019-01-24T19:05:19.913Z,19.95
2019-01-24T19:07:51.943Z,18.12
2019-01-24T19:10:23.229Z,15.03
2019-01-24T19:12:53.463Z,16.93
2019-01-24T19:15:25.945Z,20.10
2019-01-24T19:17:57.156Z,18.25
2019-01-24T19:20:28.393Z,14.15
2019-01-24T19:22:59.712Z,17.48
2019-01-24T19:25:31.117Z,20.08
2019-01-24T19:28:02.303Z,20.68
2019-01-24T19:30:35.827Z,21.02
2019-01-24T19:33:08.385Z,15.43
2019-01-24T19:35:39.703Z,18.20
2019-01-24T19:38:10.951Z,22.90
2019-01-24T19:40:42.351Z,15.83
2019-01-24T19:43:13.770Z,15.53
2019-01-24T19:45:45.870Z,20.35
2019-01-24T19:48:18.502Z,24.67
2019-01-24T19:50:50.392Z,19.98
2019-01-24T19:53:21.743Z,19.35
2019-01-24T19:55:53.183Z,19.30
2019-01-24T19:58:26.027Z,22.15
2019-01-24T20:00:56.903Z,16.20
2019-01-24T20:03:27.183Z,22.52
2019-01-24T20:05:58.485Z,11.70
2019-01-24T20:08:31.342Z,17.75
2019-01-24T20:11:01.591Z,22.50
2019-01-24T20:13:32.904Z,21.42
2019-01-24T20:16:02.503Z,18.20
2019-01-24T20:18:33.903Z,23.80
2019-01-24T20:21:05.225Z,10.85
2019-01-24T20:23:36.590Z,20.25
2019-01-24T20:26:07.984Z,19.42
2019-01-24T20:28:40.385Z,15.72
2019-01-24T20:31:14.223Z,25.37
2019-01-24T20:33:45.476Z,20.52
2019-01-24T20:36:16.783Z,32.67
2019-01-24T20:38:48.069Z,23.83
2019-01-24T20:41:19.340Z,31.07
2019-01-24T20:43:51.949Z,24.23
2019-01-24T20:46:23.291Z,20.92
2019-01-24T20:48:56.863Z,26.75
2019-01-24T20:51:32.467Z,25.68
2019-01-24T20:54:03.704Z,17.32
2019-01-24T20:56:40.553Z,10.75
2019-01-24T20:59:13.191Z,19.87
2019-01-24T21:01:45.141Z,14.95
2019-01-24T21:04:17.055Z,24.85
2019-01-24T21:06:48.543Z,12.58
2019-01-24T21:09:18.783Z,25.57
2019-01-24T21:11:51.503Z,14.85
2019-01-24T21:14:21.661Z,14.03
2019-01-24T21:16:53.022Z,20.75
2019-01-24T21:19:28.514Z,21.27
2019-01-24T21:21:59.615Z,19.65
2019-01-24T21:24:32.950Z,20.52
2019-01-24T21:27:05.730Z,18.27
2019-01-24T21:29:38.145Z,19.37
2019-01-24T21:32:09.424Z,25.70
2019-01-24T21:34:40.478Z,20.80
2019-01-24T21:37:13.279Z,24.32
2019-01-24T21:39:44.925Z,21.37
2019-01-24T21:42:16.022Z,18.15
2019-01-24T21:44:47.103Z,21.27
2019-01-24T21:47:17.028Z,15.70
2019-01-24T21:49:48.101Z,10.75
2019-01-24T21:52:22.682Z,13.43
2019-01-24T21:54:55.391Z,21.20
2019-01-24T21:57:26.462Z,13.20
2019-01-24T21:59:57.488Z,18.30
2019-01-24T22:02:28.543Z,16.10
2019-01-24T22:05:00.590Z,13.18
2019-01-24T22:07:31.567Z,18.35
2019-01-24T22:10:02.597Z,10.45
2019-01-24T22:12:35.262Z,19.57
2019-01-24T22:15:09.839Z,21.48
2019-01-24T22:17:44.292Z,12.50
2019-01-24T22:20:16.768Z,20.75
2019-01-24T22:22:48.442Z,15.88
2019-01-24T22:25:20.381Z,25.60
2019-01-24T22:27:50.341Z,14.45
2019-01-24T22:30:24.542Z,18.25
2019-01-24T22:32:55.627Z,17.60
2019-01-24T22:35:27.148Z,19.52
2019-01-24T22:37:58.621Z,20.52
2019-01-24T22:40:28.431Z,15.63
2019-01-24T22:42:58.395Z,20.52
2019-01-24T22:45:31.385Z,21.27
2019-01-24T22:48:03.682Z,25.65
2019-01-24T22:50:35.072Z,17.70
2019-01-24T22:53:07.701Z,17.70
2019-01-24T22:55:38.653Z,19.02
2019-01-24T22:58:09.600Z,16.02
2019-01-24T23:00:51.182Z,22.80
2019-01-24T23:03:30.339Z,20.27
2019-01-24T23:06:01.381Z,19.42
2019-01-24T23:08:33.921Z,22.50
2019-01-24T23:11:04.943Z,15.03
2019-01-24T23:13:35.840Z,18.82
2019-01-24T23:16:07.342Z,10.38
2019-01-24T23:18:38.390Z,20.50
2019-01-24T23:21:09.504Z,17.87
2019-01-24T23:23:41.955Z,19.80
2019-01-24T23:26:15.351Z,24.43
2019-01-24T23:28:46.350Z,21.68
2019-01-24T23:31:19.023Z,16.12
2019-01-24T23:33:51.705Z,21.40
2019-01-24T23:36:22.711Z,19.82
2019-01-24T23:38:52.622Z,18.75
2019-01-24T23:41:24.042Z,22.73
2019-01-24T23:43:53.918Z,21.87
2019-01-24T23:46:23.982Z,16.82
2019-01-24T23:48:54.947Z,20.20
2019-01-24T23:51:26.013Z,21.82
2019-01-24T23:53:55.943Z,20.77
2019-01-24T23:56:28.062Z,21.12
2019-01-24T23:59:03.219Z,21.45
